Airfield :
LOGIN :

Register | Disclaimer

   EN    FR    IT 

 










Legend :    VFR   Marginal VFR   IFR   Intensive IFR   Very Intensive IFR
Visi :
Ceiling :
>= 8 km
>= 3000ft
5 to 8 km
1000 to 3000 ft
1500m to 5 km
500 to 1000 ft
800 to 1500m
200 to 500 ft
< 800m
< 200 ft
Symbols :   Thunderstorms  Fog  Heavy snow  Heavy precipitations  Wind > 20 kt
SIGMETs :     Misc.  Thunderstorms  Icing  Turbulence  Mountain Waves  Volcanic Ashes







- Airport Elevation : 794 ft


LKCV - Čáslav Air Base

CURRENT METAR :
  • 250100Z 27006KT 9999 FEW018 OVC025 11/10 Q1019 NOSIG RMK BLU BLU

EXPIRED METARs :
  • 250000Z 26004KT 9999 FEW024 OVC030 12/10 Q1019 NOSIG RMK BLU BLU
  • 242300Z 32004KT 9999 -RA BKN024 OVC044 12/10 Q1019 NOSIG RMK WHT WHT

TAF TAF LKCV
Valid from the 25 at 00:00 until the 26 at 00:00 UTC


242300Z 2500/2600 31007KT 9999 BKN045
TEMPO 2500/2511 8000 -RA BKN030
TEMPO 2500/2506 28004KT 4000 RA SCT010 BKN020
BECMG 2513/2515 CAVOK
PROB30
TEMPO 2516/2518 SHRA SCT045TCU
No reported NOTAMs for that airfield.



MET'MAP, your aeronautical weather chart ! - Copyright ORBIFLY December 2007 - Disclaimer

ORBIFLY MET'MAP TEAM :

Programming & Development : Alexandra Zaïnal
Concept & Development : Baudouin d'Aumeries
Co-Development & Prog : Marc-Olivier Méhu
Technical & hardware support : Manuel Goepfert

Contact : metmap@orbifly.com




SOURCES & CREDITS :

   NOAA